createdAt,value
2023-02-27T00:00:20.768Z,76.17
2023-02-27T00:02:49.048Z,77.09
2023-02-27T00:05:15.941Z,76.50
2023-02-27T00:07:42.231Z,76.50
2023-02-27T00:10:09.561Z,77.41
2023-02-27T00:12:37.820Z,76.96
2023-02-27T00:15:08.368Z,77.78
2023-02-27T00:17:34.983Z,77.27
2023-02-27T00:20:01.261Z,77.17
2023-02-27T00:22:27.730Z,77.59
2023-02-27T00:24:54.158Z,77.67
2023-02-27T00:27:20.464Z,78.67
2023-02-27T00:29:46.730Z,77.77
2023-02-27T00:32:13.100Z,77.06
2023-02-27T00:34:39.371Z,77.48
2023-02-27T00:37:05.658Z,77.51
2023-02-27T00:39:32.101Z,78.22
2023-02-27T00:41:58.405Z,77.70
2023-02-27T00:44:24.692Z,78.30
2023-02-27T00:46:51.212Z,78.25
2023-02-27T00:49:17.722Z,78.69
2023-02-27T00:51:44.106Z,78.86
2023-02-27T00:54:10.428Z,78.49
2023-02-27T00:56:37.201Z,79.56
2023-02-27T00:59:04.062Z,79.33
2023-02-27T01:01:30.351Z,79.71
2023-02-27T01:03:56.623Z,79.88
2023-02-27T01:06:22.883Z,80.81
2023-02-27T01:08:49.353Z,80.50
2023-02-27T01:11:15.600Z,80.09
2023-02-27T01:13:41.884Z,79.97
2023-02-27T01:16:10.536Z,80.11
2023-02-27T01:18:36.852Z,80.06
2023-02-27T01:21:03.219Z,80.57
2023-02-27T01:23:29.834Z,81.92
2023-02-27T01:25:56.104Z,82.59
2023-02-27T01:28:22.544Z,83.00
2023-02-27T01:30:48.875Z,81.63
2023-02-27T01:33:15.242Z,82.23
2023-02-27T01:35:41.497Z,82.91
2023-02-27T01:38:07.981Z,82.03
2023-02-27T01:40:38.392Z,82.13
2023-02-27T01:43:05.715Z,83.45
2023-02-27T01:45:39.410Z,82.58
2023-02-27T01:48:05.702Z,82.90
2023-02-27T01:50:33.280Z,82.31
2023-02-27T01:53:01.311Z,83.38
2023-02-27T01:55:28.610Z,82.40
2023-02-27T01:57:55.427Z,83.57
2023-02-27T02:00:22.189Z,83.62
2023-02-27T02:03:11.489Z,83.85
2023-02-27T02:05:38.242Z,83.93
2023-02-27T02:08:05.428Z,84.23
2023-02-27T02:10:32.234Z,83.73
2023-02-27T02:12:59.082Z,84.75
2023-02-27T02:15:29.205Z,83.97
2023-02-27T02:18:19.311Z,84.60
2023-02-27T02:21:01.798Z,84.75
2023-02-27T02:23:31.311Z,84.14
2023-02-27T02:26:09.177Z,83.37
2023-02-27T02:28:53.752Z,83.57
2023-02-27T02:31:20.144Z,84.03
2023-02-27T02:33:49.155Z,83.91
2023-02-27T02:36:31.731Z,84.80
2023-02-27T02:39:06.914Z,85.16
2023-02-27T02:41:33.249Z,84.82
2023-02-27T02:44:02.671Z,87.00
2023-02-27T02:46:32.157Z,86.62
2023-02-27T02:48:58.481Z,86.64
2023-02-27T02:51:34.861Z,87.41
2023-02-27T02:54:01.178Z,89.30
2023-02-27T02:56:44.077Z,89.80
2023-02-27T02:59:16.570Z,89.12
2023-02-27T03:01:46.097Z,88.72
2023-02-27T03:04:28.839Z,89.32
2023-02-27T03:07:02.680Z,89.69
2023-02-27T03:09:34.121Z,89.40
2023-02-27T03:12:02.617Z,90.96
2023-02-27T03:14:38.098Z,91.76
2023-02-27T03:17:06.788Z,90.41
2023-02-27T03:19:55.238Z,90.85
2023-02-27T03:22:32.644Z,91.87
2023-02-27T03:25:00.978Z,93.41
2023-02-27T03:27:30.228Z,90.87
2023-02-27T03:30:29.154Z,91.19
2023-02-27T03:33:01.107Z,90.63
2023-02-27T03:35:35.235Z,90.15
2023-02-27T03:38:06.323Z,91.13
2023-02-27T03:40:52.851Z,92.24
2023-02-27T03:43:26.523Z,93.37
2023-02-27T03:45:52.818Z,92.90
2023-02-27T03:48:19.201Z,92.68
2023-02-27T03:50:45.491Z,93.97
2023-02-27T03:53:17.665Z,93.52
2023-02-27T03:55:45.885Z,94.09
2023-02-27T03:58:12.197Z,93.08
2023-02-27T04:00:38.646Z,93.79
2023-02-27T04:03:05.608Z,95.24
2023-02-27T04:05:32.893Z,93.38
2023-02-27T04:08:11.316Z,92.76
2023-02-27T04:10:51.070Z,94.94
2023-02-27T04:13:27.757Z,93.95
2023-02-27T04:15:54.009Z,94.41
2023-02-27T04:18:32.518Z,95.27
2023-02-27T04:21:05.030Z,94.84
2023-02-27T04:23:39.086Z,95.08
2023-02-27T04:26:14.432Z,94.35
2023-02-27T04:28:40.739Z,96.70
2023-02-27T04:31:13.760Z,96.88
2023-02-27T04:33:45.713Z,96.73
2023-02-27T04:36:16.460Z,98.51
2023-02-27T04:38:50.189Z,97.74
2023-02-27T04:41:18.616Z,98.96
2023-02-27T04:43:45.762Z,97.47
2023-02-27T04:46:13.872Z,99.14
2023-02-27T04:48:53.362Z,97.03
2023-02-27T04:51:22.915Z,98.17
2023-02-27T04:54:00.677Z,98.07
2023-02-27T04:56:35.277Z,97.59
2023-02-27T04:59:17.075Z,98.42
2023-02-27T05:01:47.883Z,100.00
2023-02-27T05:04:15.878Z,100.00
2023-02-27T05:06:43.782Z,100.00
2023-02-27T05:09:20.972Z,99.90
2023-02-27T05:12:09.881Z,100.00
2023-02-27T05:14:39.029Z,100.00
2023-02-27T05:17:10.897Z,100.00
2023-02-27T05:19:39.576Z,100.00
2023-02-27T05:22:13.492Z,100.00
2023-02-27T05:24:49.804Z,100.00
2023-02-27T05:27:35.741Z,100.00
2023-02-27T05:30:09.494Z,100.00
2023-02-27T05:32:48.803Z,100.00
2023-02-27T05:35:15.410Z,100.00
2023-02-27T05:37:45.084Z,100.00
2023-02-27T05:40:13.686Z,100.00
2023-02-27T05:42:42.509Z,100.00
2023-02-27T05:45:19.962Z,100.00
2023-02-27T05:47:49.959Z,100.00
2023-02-27T05:50:18.739Z,100.00
2023-02-27T05:52:45.737Z,100.00
2023-02-27T05:55:12.095Z,100.00
2023-02-27T05:57:38.418Z,100.00
2023-02-27T06:00:15.009Z,100.00
2023-02-27T06:02:42.592Z,100.00
2023-02-27T06:05:09.157Z,100.00
2023-02-27T06:07:35.785Z,100.00
2023-02-27T06:10:02.376Z,100.00
2023-02-27T06:12:28.655Z,100.00
2023-02-27T06:14:54.989Z,100.00
2023-02-27T06:17:21.611Z,100.00
2023-02-27T06:19:47.966Z,100.00
2023-02-27T06:22:14.310Z,100.00
2023-02-27T06:24:40.592Z,100.00
2023-02-27T06:27:06.986Z,100.00
2023-02-27T06:29:33.301Z,100.00
2023-02-27T06:31:59.771Z,100.00
2023-02-27T06:34:26.184Z,100.00
2023-02-27T06:36:52.562Z,100.00
2023-02-27T06:39:18.884Z,100.00
2023-02-27T06:41:45.117Z,100.00
2023-02-27T06:44:11.411Z,100.00
2023-02-27T06:46:37.812Z,100.00
2023-02-27T06:49:04.179Z,100.00
2023-02-27T06:51:30.621Z,100.00
2023-02-27T06:53:57.094Z,100.00
2023-02-27T06:56:23.524Z,100.00
2023-02-27T06:58:49.933Z,100.00
2023-02-27T07:01:19.022Z,100.00
2023-02-27T07:03:45.607Z,100.00
2023-02-27T07:06:12.964Z,100.00
2023-02-27T07:09:01.922Z,100.00
2023-02-27T07:11:25.708Z,100.00
2023-02-27T07:13:51.926Z,100.00
2023-02-27T07:16:18.228Z,100.00
2023-02-27T07:18:44.555Z,100.00
2023-02-27T07:21:10.851Z,100.00
2023-02-27T07:23:38.167Z,100.00
2023-02-27T07:26:05.468Z,100.00
2023-02-27T07:28:31.829Z,100.00
2023-02-27T07:30:58.491Z,100.00
2023-02-27T07:33:25.062Z,100.00
2023-02-27T07:35:51.410Z,100.00
2023-02-27T07:38:22.451Z,100.00
2023-02-27T07:40:48.784Z,100.00
2023-02-27T07:43:15.120Z,100.00
2023-02-27T07:45:41.500Z,100.00
2023-02-27T07:48:07.789Z,100.00
2023-02-27T07:50:34.099Z,100.00
2023-02-27T07:53:00.361Z,100.00
2023-02-27T07:55:26.645Z,100.00
2023-02-27T07:57:52.949Z,100.00
2023-02-27T08:00:19.526Z,100.00
2023-02-27T08:02:46.587Z,100.00
2023-02-27T08:05:12.888Z,100.00
2023-02-27T08:07:39.212Z,100.00
2023-02-27T08:10:06.103Z,100.00
2023-02-27T08:12:32.604Z,100.00
2023-02-27T08:14:58.845Z,100.00
2023-02-27T08:17:25.192Z,100.00
2023-02-27T08:19:51.538Z,100.00
2023-02-27T08:22:17.845Z,100.00
2023-02-27T08:24:44.371Z,100.00
2023-02-27T08:27:10.654Z,100.00
2023-02-27T08:29:37.071Z,100.00
2023-02-27T08:32:04.776Z,100.00
2023-02-27T08:34:31.122Z,100.00
2023-02-27T08:36:57.440Z,100.00
2023-02-27T08:39:26.727Z,100.00
2023-02-27T08:41:53.031Z,100.00
2023-02-27T08:44:19.753Z,100.00
2023-02-27T08:46:46.229Z,100.00
2023-02-27T08:49:12.790Z,99.31
2023-02-27T08:51:39.192Z,98.89
2023-02-27T08:54:05.613Z,99.80
2023-02-27T08:56:34.004Z,99.12
2023-02-27T08:59:00.415Z,98.31
2023-02-27T09:01:34.542Z,97.26
2023-02-27T09:04:04.530Z,95.57
2023-02-27T09:06:31.573Z,95.60
2023-02-27T09:08:58.569Z,95.65
2023-02-27T09:11:26.146Z,94.99
2023-02-27T09:13:52.935Z,92.12
2023-02-27T09:16:20.153Z,91.72
2023-02-27T09:18:49.278Z,92.00
2023-02-27T09:21:16.062Z,92.63
2023-02-27T09:23:44.057Z,90.74
2023-02-27T09:26:10.824Z,91.07
2023-02-27T09:28:37.625Z,90.82
2023-02-27T09:31:08.275Z,91.49
2023-02-27T09:33:35.168Z,90.10
2023-02-27T09:36:05.531Z,87.85
2023-02-27T09:38:33.141Z,87.97
2023-02-27T09:40:59.729Z,87.67
2023-02-27T09:43:32.469Z,86.25
2023-02-27T09:46:00.691Z,85.50
2023-02-27T09:48:29.722Z,85.25
2023-02-27T09:50:59.915Z,84.65
2023-02-27T09:53:31.250Z,85.06
2023-02-27T09:56:02.017Z,83.35
2023-02-27T09:58:37.339Z,82.75
2023-02-27T10:01:03.805Z,81.84
2023-02-27T10:03:43.358Z,83.19
2023-02-27T10:06:15.852Z,81.70
2023-02-27T10:09:01.363Z,82.31
2023-02-27T10:11:51.250Z,79.80
2023-02-27T10:14:19.007Z,77.81
2023-02-27T10:16:47.751Z,77.15
2023-02-27T10:19:16.767Z,75.31
2023-02-27T10:21:45.433Z,74.16
2023-02-27T10:24:30.614Z,75.03
2023-02-27T10:27:02.523Z,75.21
2023-02-27T10:29:29.266Z,77.30
2023-02-27T10:32:13.993Z,72.57
2023-02-27T10:34:41.965Z,71.42
2023-02-27T10:37:13.505Z,71.80
2023-02-27T10:39:52.960Z,71.40
2023-02-27T10:42:19.750Z,71.20
2023-02-27T10:44:53.428Z,70.68
2023-02-27T10:47:23.830Z,68.53
2023-02-27T10:49:50.647Z,68.08
2023-02-27T10:52:17.936Z,66.85
2023-02-27T10:54:44.902Z,67.67
2023-02-27T10:57:27.474Z,64.79
2023-02-27T10:59:55.838Z,63.50
2023-02-27T11:02:26.461Z,63.65
2023-02-27T11:04:54.442Z,62.61
2023-02-27T11:07:29.000Z,61.68
2023-02-27T11:09:59.839Z,62.23
2023-02-27T11:12:28.488Z,62.74
2023-02-27T11:15:02.098Z,61.69
2023-02-27T11:17:34.993Z,58.78
2023-02-27T11:20:06.137Z,59.18
2023-02-27T11:22:32.551Z,58.44
2023-02-27T11:25:25.892Z,57.00
2023-02-27T11:27:52.413Z,54.96
2023-02-27T11:30:23.872Z,54.01
2023-02-27T11:32:51.439Z,53.70
2023-02-27T11:35:20.696Z,54.06
2023-02-27T11:37:49.691Z,53.74
2023-02-27T11:40:19.380Z,52.96
2023-02-27T11:42:48.228Z,53.22
2023-02-27T11:46:10.147Z,51.43
2023-02-27T11:48:12.539Z,49.99
2023-02-27T11:50:57.652Z,51.02
2023-02-27T11:53:48.685Z,51.75
2023-02-27T11:56:18.079Z,50.85
2023-02-27T11:58:48.738Z,54.10
2023-02-27T12:01:37.559Z,49.56
2023-02-27T12:04:12.643Z,51.83
2023-02-27T12:07:05.361Z,51.50
2023-02-27T12:09:31.699Z,49.17
2023-02-27T12:12:02.447Z,50.60
2023-02-27T12:14:34.127Z,49.54
2023-02-27T12:17:09.794Z,53.49
2023-02-27T12:19:40.191Z,52.26
2023-02-27T12:22:15.319Z,51.84
2023-02-27T12:24:51.143Z,52.32
2023-02-27T12:27:20.065Z,53.39
2023-02-27T12:30:15.286Z,51.60
2023-02-27T12:32:55.138Z,50.63
2023-02-27T12:35:27.985Z,50.04
2023-02-27T12:37:54.399Z,49.23
2023-02-27T12:40:33.304Z,49.18
2023-02-27T12:43:18.500Z,51.42
2023-02-27T12:46:04.985Z,51.35
2023-02-27T12:48:31.323Z,49.84
2023-02-27T12:51:16.290Z,49.69
2023-02-27T12:53:42.599Z,51.07
2023-02-27T12:56:20.393Z,54.04
2023-02-27T12:59:03.517Z,52.79
2023-02-27T13:01:42.681Z,52.61
2023-02-27T13:04:23.753Z,52.36
2023-02-27T13:06:53.278Z,53.96
2023-02-27T13:09:37.672Z,53.40
2023-02-27T13:12:11.314Z,52.20
2023-02-27T13:14:47.722Z,53.69
2023-02-27T13:17:13.973Z,52.82
2023-02-27T13:19:49.051Z,53.54
2023-02-27T13:22:18.845Z,52.61
2023-02-27T13:24:51.565Z,52.23
2023-02-27T13:27:17.801Z,52.84
2023-02-27T13:29:47.645Z,53.55
2023-02-27T13:32:32.755Z,53.91
2023-02-27T13:35:17.321Z,54.61
2023-02-27T13:37:50.913Z,53.37
2023-02-27T13:40:27.790Z,54.94
2023-02-27T13:42:56.129Z,52.91
2023-02-27T13:45:41.103Z,53.11
2023-02-27T13:48:25.868Z,51.04
2023-02-27T13:50:52.529Z,51.30
2023-02-27T13:53:20.591Z,52.20
2023-02-27T13:55:47.137Z,51.44
2023-02-27T13:58:16.401Z,51.07
2023-02-27T14:00:42.735Z,50.43
2023-02-27T14:03:20.411Z,51.07
2023-02-27T14:05:47.833Z,50.03
2023-02-27T14:08:15.942Z,50.32
2023-02-27T14:10:53.508Z,49.89
2023-02-27T14:13:38.504Z,50.60
2023-02-27T14:16:05.615Z,49.47
2023-02-27T14:18:52.328Z,50.72
2023-02-27T14:21:37.482Z,50.75
2023-02-27T14:24:03.984Z,50.75
2023-02-27T14:26:30.347Z,52.46
2023-02-27T14:28:58.116Z,50.97
2023-02-27T14:31:35.090Z,50.71
2023-02-27T14:34:06.214Z,50.61
2023-02-27T14:36:34.587Z,50.79
2023-02-27T14:39:02.000Z,50.37
2023-02-27T14:41:35.064Z,51.55
2023-02-27T14:44:02.045Z,51.63
2023-02-27T14:46:30.238Z,52.00
2023-02-27T14:49:07.477Z,52.05
2023-02-27T14:51:35.800Z,53.51
2023-02-27T14:54:06.573Z,51.84
2023-02-27T14:56:33.724Z,49.82
2023-02-27T14:59:04.745Z,49.09
2023-02-27T15:01:35.134Z,50.25
2023-02-27T15:04:01.578Z,51.07
2023-02-27T15:06:34.758Z,51.35
2023-02-27T15:09:01.270Z,52.96
2023-02-27T15:11:28.195Z,51.86
2023-02-27T15:13:59.257Z,53.66
2023-02-27T15:16:29.087Z,54.03
2023-02-27T15:18:55.378Z,53.21
2023-02-27T15:21:22.649Z,52.09
2023-02-27T15:23:59.416Z,53.81
2023-02-27T15:26:26.729Z,53.40
2023-02-27T15:28:53.428Z,52.13
2023-02-27T15:31:24.193Z,53.09
2023-02-27T15:33:51.240Z,54.81
2023-02-27T15:36:37.868Z,54.22
2023-02-27T15:39:04.265Z,53.54
2023-02-27T15:41:30.789Z,53.37
2023-02-27T15:43:57.277Z,54.26
2023-02-27T15:46:23.903Z,54.27
2023-02-27T15:48:51.980Z,52.53
2023-02-27T15:51:18.320Z,53.74
2023-02-27T15:53:48.858Z,54.20
2023-02-27T15:56:15.628Z,54.77
2023-02-27T15:58:48.709Z,56.03
2023-02-27T16:01:19.776Z,54.28
2023-02-27T16:03:47.903Z,53.93
2023-02-27T16:06:23.390Z,55.52
2023-02-27T16:08:54.103Z,55.14
2023-02-27T16:11:21.697Z,54.55
2023-02-27T16:13:48.205Z,54.91
2023-02-27T16:16:20.464Z,55.48
2023-02-27T16:18:48.320Z,56.65
2023-02-27T16:21:16.083Z,55.80
2023-02-27T16:23:42.953Z,57.15
2023-02-27T16:26:20.897Z,56.08
2023-02-27T16:28:50.974Z,55.78
2023-02-27T16:31:28.855Z,56.71
2023-02-27T16:33:57.462Z,56.61
2023-02-27T16:36:25.101Z,56.61
2023-02-27T16:38:51.750Z,57.12
2023-02-27T16:41:19.238Z,57.05
2023-02-27T16:43:46.701Z,57.92
2023-02-27T16:46:19.442Z,58.49
2023-02-27T16:48:50.127Z,58.69
2023-02-27T16:51:17.805Z,58.33
2023-02-27T16:53:46.104Z,58.67
2023-02-27T16:56:12.796Z,59.58
2023-02-27T16:58:39.041Z,59.73
2023-02-27T17:01:05.585Z,59.52
2023-02-27T17:03:33.209Z,62.02
2023-02-27T17:05:59.453Z,60.67
2023-02-27T17:08:25.984Z,61.20
2023-02-27T17:10:53.360Z,61.57
2023-02-27T17:13:19.754Z,61.26
2023-02-27T17:15:46.284Z,61.76
2023-02-27T17:18:12.541Z,62.92
2023-02-27T17:20:38.823Z,62.02
2023-02-27T17:23:05.136Z,62.65
2023-02-27T17:25:31.396Z,63.10
2023-02-27T17:27:57.834Z,63.50
2023-02-27T17:30:24.140Z,63.74
2023-02-27T17:32:50.436Z,65.00
2023-02-27T17:35:16.824Z,64.49
2023-02-27T17:37:43.309Z,65.16
2023-02-27T17:40:12.043Z,65.39
2023-02-27T17:42:39.217Z,65.35
2023-02-27T17:45:06.544Z,64.80
2023-02-27T17:47:33.861Z,64.71
2023-02-27T17:50:00.592Z,65.57
2023-02-27T17:52:27.480Z,66.02
2023-02-27T17:54:53.760Z,66.25
2023-02-27T17:57:20.049Z,66.06
2023-02-27T17:59:46.632Z,66.98
2023-02-27T18:02:13.668Z,66.18
2023-02-27T18:04:40.080Z,66.81
2023-02-27T18:07:07.151Z,66.97
2023-02-27T18:09:33.417Z,67.84
2023-02-27T18:11:59.778Z,68.01
2023-02-27T18:14:26.258Z,68.65
2023-02-27T18:16:52.577Z,68.38
2023-02-27T18:19:18.914Z,67.89
2023-02-27T18:21:47.239Z,68.37
2023-02-27T18:24:15.697Z,68.68
2023-02-27T18:26:42.729Z,70.16
2023-02-27T18:29:10.145Z,69.47
2023-02-27T18:31:44.410Z,70.72
2023-02-27T18:34:11.368Z,71.28
2023-02-27T18:36:38.095Z,71.99
2023-02-27T18:39:08.115Z,71.97
2023-02-27T18:41:35.145Z,73.22
2023-02-27T18:44:01.483Z,72.61
2023-02-27T18:46:28.446Z,72.87
2023-02-27T18:48:55.281Z,73.10
2023-02-27T18:51:22.036Z,73.90
2023-02-27T18:53:49.254Z,72.24
2023-02-27T18:56:16.938Z,72.12
2023-02-27T18:58:43.324Z,72.17
2023-02-27T19:01:17.778Z,71.99
2023-02-27T19:03:44.093Z,73.23
2023-02-27T19:06:10.473Z,71.62
2023-02-27T19:08:36.853Z,73.13
2023-02-27T19:11:03.761Z,73.28
2023-02-27T19:13:30.477Z,73.50
2023-02-27T19:15:57.211Z,73.18
2023-02-27T19:18:23.555Z,73.18
2023-02-27T19:20:49.831Z,73.10
2023-02-27T19:23:16.136Z,73.91
2023-02-27T19:25:42.581Z,75.13
2023-02-27T19:28:12.655Z,74.45
2023-02-27T19:30:39.747Z,74.09
2023-02-27T19:33:06.239Z,74.96
2023-02-27T19:35:32.539Z,74.92
2023-02-27T19:37:59.183Z,74.24
2023-02-27T19:40:26.281Z,74.33
2023-02-27T19:42:52.710Z,74.12
2023-02-27T19:45:19.030Z,74.25
2023-02-27T19:47:46.555Z,74.45
2023-02-27T19:50:13.157Z,74.35
2023-02-27T19:52:39.517Z,73.77
2023-02-27T19:55:06.470Z,73.70
2023-02-27T19:57:33.741Z,72.76
2023-02-27T20:00:00.290Z,72.72
2023-02-27T20:02:26.583Z,71.57
2023-02-27T20:04:53.599Z,71.37
2023-02-27T20:07:19.971Z,71.88
2023-02-27T20:09:46.440Z,71.21
2023-02-27T20:12:12.719Z,70.81
2023-02-27T20:14:40.064Z,70.67
2023-02-27T20:17:07.956Z,71.76
2023-02-27T20:19:36.298Z,70.36
2023-02-27T20:22:02.825Z,70.35
2023-02-27T20:24:29.224Z,70.10
2023-02-27T20:26:57.836Z,70.11
2023-02-27T20:29:26.287Z,70.66
2023-02-27T20:31:53.870Z,70.06
2023-02-27T20:34:21.947Z,70.14
2023-02-27T20:36:49.458Z,70.61
2023-02-27T20:39:16.252Z,71.00
2023-02-27T20:41:42.688Z,72.46
2023-02-27T20:44:09.347Z,71.28
2023-02-27T20:46:36.120Z,72.13
2023-02-27T20:49:03.695Z,72.42
2023-02-27T20:51:31.909Z,71.55
2023-02-27T20:53:59.030Z,71.68
2023-02-27T20:56:29.137Z,72.25
2023-02-27T20:58:55.730Z,72.60
2023-02-27T21:01:22.068Z,73.07
2023-02-27T21:03:50.901Z,73.25
2023-02-27T21:06:17.851Z,73.90
2023-02-27T21:08:45.459Z,73.84
2023-02-27T21:11:11.773Z,72.55
2023-02-27T21:13:38.158Z,73.15
2023-02-27T21:16:05.946Z,73.08
2023-02-27T21:18:32.348Z,73.40
2023-02-27T21:21:02.431Z,74.30
2023-02-27T21:23:28.724Z,74.06
2023-02-27T21:25:55.067Z,74.20
2023-02-27T21:28:21.513Z,74.41
2023-02-27T21:30:47.881Z,73.78
2023-02-27T21:33:14.165Z,74.08
2023-02-27T21:35:45.336Z,75.00
2023-02-27T21:38:11.602Z,75.91
2023-02-27T21:40:37.930Z,75.52
2023-02-27T21:43:04.298Z,76.44
2023-02-27T21:45:30.601Z,76.62
2023-02-27T21:47:56.867Z,76.93
2023-02-27T21:50:23.208Z,77.27
2023-02-27T21:52:49.547Z,77.83
2023-02-27T21:55:16.203Z,78.48
2023-02-27T21:57:42.510Z,78.41
2023-02-27T22:00:11.447Z,78.80
2023-02-27T22:02:38.665Z,78.40
2023-02-27T22:05:05.525Z,79.05
2023-02-27T22:07:31.788Z,77.93
2023-02-27T22:09:58.112Z,78.76
2023-02-27T22:12:24.470Z,79.20
2023-02-27T22:14:50.817Z,78.55
2023-02-27T22:17:17.132Z,80.62
2023-02-27T22:19:43.685Z,81.24
2023-02-27T22:22:09.950Z,79.79
2023-02-27T22:24:36.247Z,81.55
2023-02-27T22:27:02.563Z,80.42
2023-02-27T22:29:28.792Z,80.08
2023-02-27T22:31:55.078Z,81.42
2023-02-27T22:34:21.524Z,82.49
2023-02-27T22:36:48.639Z,80.88
2023-02-27T22:39:14.970Z,82.66
2023-02-27T22:41:42.234Z,83.10
2023-02-27T22:44:09.483Z,83.05
2023-02-27T22:46:37.518Z,83.36
2023-02-27T22:49:05.898Z,83.60
2023-02-27T22:51:32.567Z,83.97
2023-02-27T22:54:00.259Z,85.27
2023-02-27T22:56:26.760Z,84.11
2023-02-27T22:58:53.388Z,84.07
2023-02-27T23:01:27.109Z,83.41
2023-02-27T23:03:54.125Z,84.20
2023-02-27T23:06:22.491Z,84.81
2023-02-27T23:08:49.101Z,86.32
2023-02-27T23:11:16.133Z,86.59
2023-02-27T23:13:42.444Z,84.68
2023-02-27T23:16:13.455Z,86.40
2023-02-27T23:18:45.914Z,87.70
2023-02-27T23:21:13.837Z,86.74
2023-02-27T23:23:40.359Z,87.49
2023-02-27T23:26:06.792Z,85.67
2023-02-27T23:28:34.543Z,86.31
2023-02-27T23:31:00.955Z,86.48
2023-02-27T23:33:27.964Z,85.26
2023-02-27T23:35:54.360Z,87.61
2023-02-27T23:38:20.970Z,90.57
2023-02-27T23:40:47.353Z,88.82
2023-02-27T23:43:32.978Z,89.45
2023-02-27T23:46:00.224Z,89.77
2023-02-27T23:48:26.624Z,90.35
2023-02-27T23:50:52.936Z,90.37
2023-02-27T23:53:19.457Z,89.87
2023-02-27T23:55:45.997Z,90.78
2023-02-27T23:58:12.437Z,92.07
